createdAt,value
2022-08-31T00:02:12.026Z,76.11
2022-08-31T00:04:41.618Z,76.13
2022-08-31T00:07:10.178Z,76.41
2022-08-31T00:09:38.552Z,75.99
2022-08-31T00:12:06.931Z,75.76
2022-08-31T00:14:36.642Z,75.71
2022-08-31T00:17:05.230Z,75.64
2022-08-31T00:19:33.807Z,75.56
2022-08-31T00:22:02.601Z,75.83
2022-08-31T00:24:32.323Z,75.82
2022-08-31T00:27:00.608Z,76.16
2022-08-31T00:29:28.872Z,76.18
2022-08-31T00:31:57.200Z,76.49
2022-08-31T00:34:28.079Z,76.72
2022-08-31T00:36:56.352Z,76.99
2022-08-31T00:39:24.532Z,77.10
2022-08-31T00:41:52.803Z,77.50
2022-08-31T00:44:23.028Z,77.67
2022-08-31T00:46:51.198Z,78.03
2022-08-31T00:49:24.745Z,78.08
2022-08-31T00:52:00.143Z,78.25
2022-08-31T00:54:36.716Z,78.76
2022-08-31T00:57:07.264Z,78.81
2022-08-31T00:59:37.208Z,78.60
2022-08-31T01:02:06.727Z,78.82
2022-08-31T01:04:35.881Z,78.76
2022-08-31T01:07:06.523Z,78.69
2022-08-31T01:09:39.467Z,78.50
2022-08-31T01:12:12.570Z,78.68
2022-08-31T01:14:42.387Z,78.43
2022-08-31T01:17:10.455Z,78.31
2022-08-31T01:19:59.825Z,78.60
2022-08-31T01:22:37.259Z,78.56
2022-08-31T01:25:07.078Z,78.27
2022-08-31T01:27:37.460Z,78.39
2022-08-31T01:30:10.500Z,78.54
2022-08-31T01:32:39.936Z,78.67
2022-08-31T01:35:11.569Z,78.25
2022-08-31T01:37:39.762Z,78.00
2022-08-31T01:40:09.525Z,77.77
2022-08-31T01:42:37.765Z,77.90
2022-08-31T01:45:07.078Z,77.85
2022-08-31T01:47:35.655Z,77.92
2022-08-31T01:50:04.335Z,77.68
2022-08-31T01:52:34.224Z,77.51
2022-08-31T01:55:03.968Z,77.56
2022-08-31T01:57:34.338Z,77.61
2022-08-31T02:00:23.968Z,77.40
2022-08-31T02:02:52.056Z,77.47
2022-08-31T02:05:21.748Z,77.34
2022-08-31T02:07:49.837Z,77.42
2022-08-31T02:10:18.105Z,77.47
2022-08-31T02:12:46.274Z,77.47
2022-08-31T02:15:14.342Z,77.52
2022-08-31T02:17:42.523Z,77.39
2022-08-31T02:20:14.512Z,77.75
2022-08-31T02:22:43.170Z,78.01
2022-08-31T02:25:12.267Z,77.93
2022-08-31T02:27:40.347Z,78.14
2022-08-31T02:30:13.431Z,78.12
2022-08-31T02:32:42.524Z,78.04
2022-08-31T02:35:12.035Z,77.88
2022-08-31T02:37:40.078Z,77.32
2022-08-31T02:40:12.294Z,77.24
2022-08-31T02:42:53.012Z,77.29
2022-08-31T02:45:23.466Z,76.87
2022-08-31T02:47:52.384Z,77.01
2022-08-31T02:50:40.171Z,77.18
2022-08-31T02:53:10.273Z,77.12
2022-08-31T02:55:39.285Z,77.47
2022-08-31T02:58:07.780Z,77.54
2022-08-31T03:00:37.798Z,77.69
2022-08-31T03:03:06.682Z,78.09
2022-08-31T03:05:35.071Z,78.51
2022-08-31T03:08:03.814Z,78.66
2022-08-31T03:10:32.751Z,79.26
2022-08-31T03:13:01.736Z,79.56
2022-08-31T03:15:30.166Z,79.74
2022-08-31T03:17:58.809Z,79.82
2022-08-31T03:20:27.842Z,80.01
2022-08-31T03:22:56.384Z,79.95
2022-08-31T03:25:27.739Z,79.68
2022-08-31T03:27:55.905Z,79.72
2022-08-31T03:30:24.207Z,79.91
2022-08-31T03:33:02.585Z,79.93
2022-08-31T03:35:32.000Z,79.83
2022-08-31T03:38:02.317Z,79.68
2022-08-31T03:40:31.130Z,79.60
2022-08-31T03:42:59.715Z,79.77
2022-08-31T03:45:28.448Z,79.73
2022-08-31T03:47:57.478Z,79.82
2022-08-31T03:50:26.192Z,79.60
2022-08-31T03:53:04.388Z,79.22
2022-08-31T03:55:33.989Z,78.93
2022-08-31T03:58:02.262Z,78.69
2022-08-31T04:00:32.491Z,78.62
2022-08-31T04:03:02.457Z,78.73
2022-08-31T04:05:36.918Z,78.76
2022-08-31T04:08:15.747Z,78.73
2022-08-31T04:10:49.961Z,78.79
2022-08-31T04:13:33.698Z,78.73
2022-08-31T04:16:41.439Z,78.61
2022-08-31T04:19:28.012Z,78.26
2022-08-31T04:22:00.402Z,78.03
2022-08-31T04:24:29.782Z,77.96
2022-08-31T04:26:57.888Z,77.89
2022-08-31T04:29:26.237Z,77.89
2022-08-31T04:31:54.514Z,77.89
2022-08-31T04:34:22.688Z,77.95
2022-08-31T04:36:50.702Z,77.86
2022-08-31T04:39:19.135Z,77.76
2022-08-31T04:41:47.615Z,77.85
2022-08-31T04:44:19.742Z,78.14
2022-08-31T04:46:48.984Z,78.12
2022-08-31T04:49:17.390Z,78.11
2022-08-31T04:51:45.557Z,78.02
2022-08-31T04:54:14.845Z,78.32
2022-08-31T04:56:45.471Z,78.37
2022-08-31T04:59:19.022Z,78.03
2022-08-31T05:02:06.796Z,78.01
2022-08-31T05:05:06.271Z,78.02
2022-08-31T05:07:34.489Z,77.71
2022-08-31T05:10:02.988Z,77.28
2022-08-31T05:12:31.664Z,77.33
2022-08-31T05:15:00.155Z,77.17
2022-08-31T05:17:29.042Z,77.12
2022-08-31T05:19:57.094Z,77.25
2022-08-31T05:22:25.578Z,77.27
2022-08-31T05:24:54.775Z,77.09
2022-08-31T05:27:23.055Z,77.00
2022-08-31T05:29:51.247Z,77.09
2022-08-31T05:32:40.605Z,77.45
2022-08-31T05:35:11.776Z,77.27
2022-08-31T05:37:40.837Z,77.27
2022-08-31T05:40:10.891Z,77.19
2022-08-31T05:42:39.236Z,77.14
2022-08-31T05:45:08.195Z,77.01
2022-08-31T05:47:37.121Z,77.08
2022-08-31T05:50:08.425Z,77.06
2022-08-31T05:52:37.971Z,76.82
2022-08-31T05:55:06.760Z,76.73
2022-08-31T05:57:35.139Z,76.76
2022-08-31T06:00:04.326Z,77.19
2022-08-31T06:02:42.239Z,77.48
2022-08-31T06:05:13.227Z,77.45
2022-08-31T06:07:42.170Z,77.75
2022-08-31T06:10:15.027Z,77.43
2022-08-31T06:12:44.872Z,78.64
2022-08-31T06:15:13.741Z,79.98
2022-08-31T06:17:42.554Z,79.71
2022-08-31T06:20:15.502Z,79.02
2022-08-31T06:22:48.218Z,78.40
2022-08-31T06:25:36.911Z,77.71
2022-08-31T06:28:08.077Z,77.12
2022-08-31T06:30:54.332Z,77.02
2022-08-31T06:33:24.333Z,76.63
2022-08-31T06:36:04.479Z,76.18
2022-08-31T06:39:00.437Z,75.81
2022-08-31T06:41:45.602Z,75.26
2022-08-31T06:44:50.417Z,74.82
2022-08-31T06:47:24.028Z,74.24
2022-08-31T06:49:53.933Z,73.52
2022-08-31T06:52:22.831Z,73.74
2022-08-31T06:55:07.078Z,74.01
2022-08-31T06:57:53.672Z,73.67
2022-08-31T07:00:40.946Z,73.47
2022-08-31T07:03:35.314Z,73.32
2022-08-31T07:06:07.497Z,73.04
2022-08-31T07:08:37.008Z,72.70
2022-08-31T07:11:11.085Z,72.67
2022-08-31T07:13:39.135Z,72.31
2022-08-31T07:16:10.969Z,72.70
2022-08-31T07:18:41.437Z,72.39
2022-08-31T07:21:13.991Z,72.41
2022-08-31T07:23:43.747Z,72.57
2022-08-31T07:26:28.001Z,72.55
2022-08-31T07:28:57.995Z,72.49
2022-08-31T07:31:37.843Z,72.79
2022-08-31T07:34:08.239Z,72.78
2022-08-31T07:37:02.657Z,72.40
2022-08-31T07:39:53.705Z,71.70
2022-08-31T07:42:31.372Z,71.86
2022-08-31T07:45:02.087Z,71.53
2022-08-31T07:47:30.591Z,71.20
2022-08-31T07:50:01.132Z,70.86
2022-08-31T07:52:58.001Z,70.35
2022-08-31T07:56:01.361Z,70.02
2022-08-31T07:58:35.269Z,68.97
2022-08-31T08:01:04.469Z,68.34
2022-08-31T08:03:32.955Z,67.87
2022-08-31T08:06:19.971Z,67.33
2022-08-31T08:09:27.264Z,67.28
2022-08-31T08:12:22.452Z,67.28
2022-08-31T08:15:13.482Z,66.49
2022-08-31T08:18:01.725Z,64.66
2022-08-31T08:20:38.504Z,64.80
2022-08-31T08:23:14.050Z,64.49
2022-08-31T08:26:08.957Z,63.72
2022-08-31T08:28:56.882Z,62.50
2022-08-31T08:31:26.237Z,62.10
2022-08-31T08:33:54.875Z,62.58
2022-08-31T08:36:23.451Z,62.66
2022-08-31T08:38:54.087Z,62.65
2022-08-31T08:41:26.499Z,61.38
2022-08-31T08:44:00.963Z,61.75
2022-08-31T08:46:48.260Z,61.63
2022-08-31T08:49:17.966Z,60.72
2022-08-31T08:51:50.772Z,60.14
2022-08-31T08:54:35.692Z,60.01
2022-08-31T08:57:14.144Z,60.14
2022-08-31T08:59:45.559Z,59.86
2022-08-31T09:02:40.525Z,59.71
2022-08-31T09:05:35.345Z,58.94
2022-08-31T09:08:44.261Z,59.82
2022-08-31T09:11:24.111Z,59.89
2022-08-31T09:14:09.975Z,60.50
2022-08-31T09:17:00.087Z,60.32
2022-08-31T09:19:28.999Z,59.94
2022-08-31T09:21:58.685Z,59.94
2022-08-31T09:24:30.264Z,59.64
2022-08-31T09:27:46.788Z,58.85
2022-08-31T09:30:34.068Z,58.94
2022-08-31T09:33:02.452Z,58.79
2022-08-31T09:35:41.501Z,58.65
2022-08-31T09:38:15.288Z,58.75
2022-08-31T09:40:49.936Z,57.86
2022-08-31T09:43:25.384Z,57.94
2022-08-31T09:46:05.144Z,57.80
2022-08-31T09:48:59.998Z,57.51
2022-08-31T09:51:30.941Z,57.68
2022-08-31T09:54:23.889Z,57.85
2022-08-31T09:56:58.869Z,57.28
2022-08-31T09:59:38.436Z,56.92
2022-08-31T10:02:12.273Z,56.58
2022-08-31T10:04:56.523Z,56.61
2022-08-31T10:07:33.716Z,56.19
2022-08-31T10:10:30.552Z,56.00
2022-08-31T10:13:34.577Z,55.30
2022-08-31T10:16:14.826Z,54.92
2022-08-31T10:19:12.084Z,55.13
2022-08-31T10:21:44.355Z,54.90
2022-08-31T10:24:46.551Z,54.51
2022-08-31T10:27:20.453Z,53.74
2022-08-31T10:30:35.225Z,53.66
2022-08-31T10:33:48.846Z,53.10
2022-08-31T10:36:18.144Z,53.27
2022-08-31T10:38:49.715Z,52.98
2022-08-31T10:41:17.767Z,53.08
2022-08-31T10:44:04.585Z,51.99
2022-08-31T10:46:34.839Z,51.93
2022-08-31T10:49:06.360Z,51.56
2022-08-31T10:51:53.292Z,51.49
2022-08-31T10:54:40.435Z,49.74
2022-08-31T10:57:32.234Z,49.27
2022-08-31T11:00:35.818Z,49.61
2022-08-31T11:03:26.287Z,48.88
2022-08-31T11:06:09.960Z,49.17
2022-08-31T11:09:22.983Z,49.31
2022-08-31T11:11:52.175Z,48.86
2022-08-31T11:14:41.041Z,48.61
2022-08-31T11:17:14.761Z,48.38
2022-08-31T11:19:57.359Z,47.76
2022-08-31T11:22:45.239Z,47.25
2022-08-31T11:25:25.109Z,47.42
2022-08-31T11:28:00.587Z,46.96
2022-08-31T11:30:32.850Z,45.39
2022-08-31T11:33:07.648Z,44.61
2022-08-31T11:35:57.405Z,45.12
2022-08-31T11:38:43.558Z,44.50
2022-08-31T11:41:11.936Z,44.79
2022-08-31T11:43:45.743Z,45.03
2022-08-31T11:46:26.511Z,45.33
2022-08-31T11:48:55.437Z,45.30
2022-08-31T11:51:36.037Z,45.54
2022-08-31T11:54:16.335Z,45.31
2022-08-31T11:56:47.477Z,45.56
2022-08-31T11:59:38.945Z,45.48
2022-08-31T12:02:19.767Z,45.37
2022-08-31T12:04:53.858Z,45.00
2022-08-31T12:07:28.573Z,44.65
2022-08-31T12:10:08.656Z,44.79
2022-08-31T12:12:55.371Z,44.75
2022-08-31T12:15:47.133Z,43.98
2022-08-31T12:18:31.138Z,43.30
2022-08-31T12:21:40.883Z,45.65
2022-08-31T12:24:18.658Z,48.45
2022-08-31T12:27:04.809Z,49.66
2022-08-31T12:29:39.135Z,50.37
2022-08-31T12:32:22.020Z,50.21
2022-08-31T12:34:58.600Z,51.00
2022-08-31T12:37:32.966Z,52.03
2022-08-31T12:40:14.262Z,52.59
2022-08-31T12:42:48.412Z,53.78
2022-08-31T12:45:18.428Z,55.20
2022-08-31T12:48:14.714Z,56.81
2022-08-31T12:50:49.234Z,58.57
2022-08-31T12:53:45.745Z,59.29
2022-08-31T12:56:58.188Z,59.55
2022-08-31T13:00:01.684Z,60.17
2022-08-31T13:02:34.838Z,61.11
2022-08-31T13:05:14.470Z,62.38
2022-08-31T13:07:42.807Z,63.56
2022-08-31T13:10:24.745Z,63.69
2022-08-31T13:12:56.332Z,64.05
2022-08-31T13:15:39.409Z,64.23
2022-08-31T13:18:23.559Z,64.55
2022-08-31T13:21:06.059Z,65.10
2022-08-31T13:23:40.925Z,65.97
2022-08-31T13:26:20.007Z,66.15
2022-08-31T13:28:50.360Z,67.59
2022-08-31T13:31:33.057Z,67.82
2022-08-31T13:34:05.407Z,67.91
2022-08-31T13:36:53.771Z,68.52
2022-08-31T13:39:21.880Z,69.43
2022-08-31T13:42:10.741Z,69.76
2022-08-31T13:44:42.471Z,70.20
2022-08-31T13:47:19.955Z,69.37
2022-08-31T13:49:49.974Z,68.76
2022-08-31T13:52:23.280Z,67.98
2022-08-31T13:55:08.176Z,67.71
2022-08-31T13:57:38.498Z,68.06
2022-08-31T14:00:39.602Z,67.93
2022-08-31T14:03:54.914Z,67.54
2022-08-31T14:06:25.865Z,66.95
2022-08-31T14:09:05.781Z,66.53
2022-08-31T14:11:35.743Z,63.27
2022-08-31T14:14:11.415Z,61.14
2022-08-31T14:16:51.841Z,58.67
2022-08-31T14:19:31.710Z,57.06
2022-08-31T14:22:27.492Z,55.88
2022-08-31T14:24:56.490Z,52.87
2022-08-31T14:27:24.667Z,51.63
2022-08-31T14:29:53.042Z,51.60
2022-08-31T14:32:22.816Z,52.06
2022-08-31T14:34:51.440Z,51.25
2022-08-31T14:37:30.160Z,51.28
2022-08-31T14:40:06.900Z,50.66
2022-08-31T14:42:38.617Z,50.68
2022-08-31T14:45:21.510Z,50.67
2022-08-31T14:47:52.557Z,51.09
2022-08-31T14:50:25.521Z,51.93
2022-08-31T14:52:55.654Z,51.77
2022-08-31T14:55:28.326Z,51.54
2022-08-31T14:58:05.524Z,52.61
2022-08-31T15:00:51.077Z,53.56
2022-08-31T15:03:24.637Z,54.41
2022-08-31T15:05:52.780Z,55.23
2022-08-31T15:08:28.362Z,55.68
2022-08-31T15:11:11.246Z,55.80
2022-08-31T15:13:39.942Z,56.04
2022-08-31T15:16:13.416Z,56.66
2022-08-31T15:18:45.086Z,57.02
2022-08-31T15:21:13.268Z,57.17
2022-08-31T15:23:42.258Z,56.82
2022-08-31T15:26:15.019Z,57.07
2022-08-31T15:28:43.434Z,56.47
2022-08-31T15:31:24.319Z,56.71
2022-08-31T15:33:55.285Z,57.87
2022-08-31T15:36:27.296Z,58.43
2022-08-31T15:38:57.521Z,58.72
2022-08-31T15:41:29.232Z,59.11
2022-08-31T15:43:57.650Z,58.70
2022-08-31T15:47:01.464Z,58.12
2022-08-31T15:49:29.858Z,57.68
2022-08-31T15:51:58.994Z,58.21
2022-08-31T15:54:28.544Z,58.18
2022-08-31T15:56:58.404Z,57.39
2022-08-31T15:59:27.042Z,56.88
2022-08-31T16:01:55.059Z,56.68
2022-08-31T16:04:26.364Z,56.58
2022-08-31T16:06:55.635Z,57.17
2022-08-31T16:09:24.146Z,57.00
2022-08-31T16:11:53.273Z,56.66
2022-08-31T16:14:21.725Z,57.12
2022-08-31T16:16:50.616Z,57.69
2022-08-31T16:19:34.604Z,58.83
2022-08-31T16:22:06.175Z,61.26
2022-08-31T16:24:38.374Z,59.87
2022-08-31T16:27:09.318Z,59.91
2022-08-31T16:29:38.712Z,60.37
2022-08-31T16:32:09.523Z,60.63
2022-08-31T16:34:40.093Z,60.89
2022-08-31T16:37:10.596Z,61.20
2022-08-31T16:39:41.505Z,61.43
2022-08-31T16:42:12.439Z,61.23
2022-08-31T16:44:44.007Z,60.92
2022-08-31T16:47:15.092Z,61.18
2022-08-31T16:49:44.181Z,61.75
2022-08-31T16:52:21.713Z,61.92
2022-08-31T16:54:51.603Z,62.21
2022-08-31T16:57:25.548Z,62.79
2022-08-31T16:59:55.726Z,63.29
2022-08-31T17:02:25.272Z,63.84
2022-08-31T17:04:54.405Z,64.38
2022-08-31T17:07:24.695Z,64.33
2022-08-31T17:09:58.127Z,64.88
2022-08-31T17:12:27.532Z,65.50
2022-08-31T17:14:56.237Z,65.82
2022-08-31T17:17:26.051Z,65.70
2022-08-31T17:19:56.172Z,65.86
2022-08-31T17:22:32.589Z,66.23
2022-08-31T17:25:04.250Z,66.25
2022-08-31T17:27:34.929Z,66.62
2022-08-31T17:30:06.397Z,66.82
2022-08-31T17:32:39.357Z,66.53
2022-08-31T17:35:19.261Z,66.74
2022-08-31T17:37:50.958Z,67.15
2022-08-31T17:40:20.047Z,67.57
2022-08-31T17:42:49.994Z,67.84
2022-08-31T17:45:18.068Z,68.09
2022-08-31T17:47:46.071Z,68.21
2022-08-31T17:50:17.472Z,67.81
2022-08-31T17:52:47.498Z,68.12
2022-08-31T17:55:15.565Z,68.48
2022-08-31T17:57:44.450Z,67.81
2022-08-31T18:00:15.087Z,67.67
2022-08-31T18:02:43.767Z,68.17
2022-08-31T18:05:16.501Z,68.69
2022-08-31T18:07:44.762Z,68.60
2022-08-31T18:10:13.012Z,68.27
2022-08-31T18:12:42.325Z,68.59
2022-08-31T18:15:12.754Z,69.07
2022-08-31T18:17:41.009Z,69.40
2022-08-31T18:20:12.443Z,69.62
2022-08-31T18:22:40.527Z,69.92
2022-08-31T18:25:09.494Z,70.69
2022-08-31T18:27:37.511Z,70.91
2022-08-31T18:30:10.068Z,71.11
2022-08-31T18:32:38.240Z,71.07
2022-08-31T18:35:14.091Z,71.39
2022-08-31T18:37:42.231Z,71.79
2022-08-31T18:40:29.826Z,71.43
2022-08-31T18:43:16.916Z,71.45
2022-08-31T18:45:49.800Z,71.37
2022-08-31T18:48:27.141Z,71.51
2022-08-31T18:50:59.321Z,71.53
2022-08-31T18:53:30.371Z,71.64
2022-08-31T18:56:07.268Z,71.91
2022-08-31T18:58:36.060Z,71.77
2022-08-31T19:01:07.677Z,72.00
2022-08-31T19:03:37.898Z,72.26
2022-08-31T19:06:07.343Z,72.21
2022-08-31T19:08:36.242Z,72.51
2022-08-31T19:11:08.128Z,72.30
2022-08-31T19:13:36.279Z,72.25
2022-08-31T19:16:15.185Z,72.52
2022-08-31T19:18:45.735Z,72.74
2022-08-31T19:21:23.852Z,72.72
2022-08-31T19:23:52.939Z,72.43
2022-08-31T19:26:44.665Z,72.19
2022-08-31T19:29:15.415Z,72.27
2022-08-31T19:31:46.311Z,72.12
2022-08-31T19:34:17.308Z,72.11
2022-08-31T19:36:50.311Z,71.92
2022-08-31T19:39:24.576Z,71.83
2022-08-31T19:41:58.791Z,71.84
2022-08-31T19:44:28.279Z,71.65
2022-08-31T19:46:57.852Z,71.63
2022-08-31T19:49:31.120Z,71.75
2022-08-31T19:52:03.736Z,71.96
2022-08-31T19:54:35.301Z,71.95
2022-08-31T19:57:03.613Z,72.17
2022-08-31T19:59:31.844Z,72.22
2022-08-31T20:02:05.831Z,72.40
2022-08-31T20:04:36.019Z,72.54
2022-08-31T20:07:06.650Z,72.66
2022-08-31T20:09:35.297Z,72.81
2022-08-31T20:12:03.998Z,72.79
2022-08-31T20:14:32.217Z,72.92
2022-08-31T20:17:01.084Z,72.93
2022-08-31T20:19:36.223Z,73.15
2022-08-31T20:22:08.252Z,73.33
2022-08-31T20:24:43.719Z,73.84
2022-08-31T20:27:16.415Z,74.23
2022-08-31T20:29:48.200Z,74.18
2022-08-31T20:32:16.359Z,74.06
2022-08-31T20:34:45.030Z,74.35
2022-08-31T20:37:13.407Z,74.18
2022-08-31T20:39:42.323Z,74.41
2022-08-31T20:42:10.691Z,74.62
2022-08-31T20:44:39.263Z,74.92
2022-08-31T20:47:28.230Z,75.02
2022-08-31T20:49:59.505Z,75.14
2022-08-31T20:52:39.424Z,74.88
2022-08-31T20:55:08.234Z,74.59
2022-08-31T20:57:40.979Z,74.39
2022-08-31T21:00:10.730Z,74.31
2022-08-31T21:02:40.062Z,74.07
2022-08-31T21:08:00.146Z,74.20
2022-08-31T21:10:37.407Z,74.17
2022-08-31T21:13:12.935Z,74.31
2022-08-31T21:15:46.134Z,74.42
2022-08-31T21:18:19.150Z,74.21
2022-08-31T21:20:48.217Z,73.96
2022-08-31T21:23:17.109Z,74.20
2022-08-31T21:25:46.230Z,74.01
2022-08-31T21:28:17.574Z,74.16
2022-08-31T21:30:49.774Z,74.38
2022-08-31T21:33:18.949Z,74.36
2022-08-31T21:35:48.021Z,74.49
2022-08-31T21:38:18.386Z,74.41
2022-08-31T21:40:50.642Z,74.70
2022-08-31T21:43:19.894Z,74.96
2022-08-31T21:45:51.524Z,74.94
2022-08-31T21:48:26.068Z,74.84
2022-08-31T21:50:55.359Z,74.82
2022-08-31T21:53:25.947Z,74.87
2022-08-31T21:55:54.732Z,74.97
2022-08-31T21:58:23.292Z,75.00
2022-08-31T22:00:52.714Z,75.03
2022-08-31T22:03:21.270Z,75.00
2022-08-31T22:05:50.174Z,75.02
2022-08-31T22:08:18.867Z,75.13
2022-08-31T22:10:49.164Z,75.09
2022-08-31T22:13:17.305Z,75.30
2022-08-31T22:15:48.168Z,75.19
2022-08-31T22:21:06.862Z,75.52
2022-08-31T22:23:36.059Z,75.55
2022-08-31T22:26:04.546Z,75.48
2022-08-31T22:28:34.171Z,75.81
2022-08-31T22:31:03.229Z,75.75
2022-08-31T22:33:31.419Z,75.65
2022-08-31T22:35:59.341Z,75.81
2022-08-31T22:38:28.147Z,76.13
2022-08-31T22:40:56.386Z,76.15
2022-08-31T22:43:24.344Z,76.31
2022-08-31T22:45:52.408Z,76.07
2022-08-31T22:48:20.538Z,76.09
2022-08-31T22:50:48.623Z,76.05
2022-08-31T22:53:16.947Z,76.01
2022-08-31T22:55:45.090Z,76.10
2022-08-31T22:58:13.895Z,76.24
2022-08-31T23:00:43.077Z,76.11
2022-08-31T23:03:14.145Z,76.02
2022-08-31T23:05:44.121Z,75.97
2022-08-31T23:08:13.946Z,75.83
2022-08-31T23:10:42.248Z,75.97
2022-08-31T23:13:10.510Z,76.08
2022-08-31T23:15:38.633Z,76.17
2022-08-31T23:18:10.153Z,76.33
2022-08-31T23:20:38.794Z,76.30
2022-08-31T23:23:06.908Z,76.21
2022-08-31T23:25:35.488Z,76.20
2022-08-31T23:28:04.166Z,76.11
2022-08-31T23:30:32.229Z,76.11
2022-08-31T23:33:02.352Z,75.99
2022-08-31T23:35:30.626Z,76.20
2022-08-31T23:38:00.743Z,76.19
2022-08-31T23:40:31.170Z,76.44
2022-08-31T23:43:00.289Z,76.50
2022-08-31T23:45:28.643Z,76.29
2022-08-31T23:47:57.843Z,76.47
2022-08-31T23:50:25.940Z,76.50
2022-08-31T23:52:54.133Z,76.61
2022-08-31T23:55:31.216Z,76.76
2022-08-31T23:57:59.655Z,77.03
